Kezdőlap
METAR-TAF:

METAR-TAF

Repülőterek :

Milton, Massachusetts, Amerikai Egyesült Államok

földrajzi szélesség: 42-12-44N, földrajzi hosszúság: 071-06-53W, magasság: 192 m

Jelenlegi meteorológiai megfigyelések

A jelentés 19 perccel ezelõtt készült, 15:51 UTC
Észak-északnyugati szél 5 kt
Hőmérséklet 13°C
Páratartalom 33%
Légköri nyomás 1015 hPa

METAR: KMQE 061551Z AUTO 34005KT 13/M03 A2997 RMK AO1 SLP163 T01281033

Idő: 12:10 (16:10 UTC)


TAF: hiányzik

Meteorológiai megfigyelések és előrejelzések több, mint 4000 repülőtéren (METAR és TAF jelentéseket).

A térképen piros és sárga pontok jelzik az elérhető meteorológiai állomásokat.

Mozgassa az egeret a pont fölött, hogy megjelenjen az állomás neve.

Azután kattintson az időjárási megfigyelések és előrejelzések megtekintéséhez.

A térkép megváltoztatása: kattintson a fekete keresztel jelölt zöld gombra ráközelítéshez, a vonallal jelölt zöld gombra távolításhoz, vagy a zöld nyilakra a szomszédos térképek eléréséhez.


METAR-TAF: